Walker, California
Current Conditions -  °F | °C
As of 1:52 AM on Friday 21 Nov 2014 (Local Time) from KBAN Reporting Station
Clear Clear  
Wind Chill: 23°   Ceiling: Unl
Heat Index: 23°   Visibility: NA
Dew Point: 18°   Wind: 0mph
Humidity: 81%   Direction: NA
Pressure: 29.99"   Gusts: NA
Location:  38.4678°N, 119.486°W
Report Text: KBAN 210952Z AUTO 00000KT CLR M05/M08 A2999 RMK AO2 SLP147 T10501078 FZRANO $
Loading
Personal Weather Stations






























Interactive Weather Map New forecast layout! Learn more

10-Day Weather Forecast

Advertisements
Track Severe Weather on mobile